sensor_id;sensor_type;location;lat;lon;timestamp;noise_LAeq;noise_LA_min;noise_LA_max;noise_LA01;noise_LA95
76767;Laerm;65707;52.362;6.588;2023-03-01T00:02:22;36.79;31.21;46.17;;
76767;Laerm;65707;52.362;6.588;2023-03-01T00:04:48;36.02;31.20;40.28;;
76767;Laerm;65707;52.362;6.588;2023-03-01T00:07:15;35.25;30.78;40.66;;
76767;Laerm;65707;52.362;6.588;2023-03-01T00:09:42;36.03;31.17;42.35;;
76767;Laerm;65707;52.362;6.588;2023-03-01T00:12:11;35.88;31.03;41.75;;
76767;Laerm;65707;52.362;6.588;2023-03-01T00:14:38;35.71;30.73;40.74;;
76767;Laerm;65707;52.362;6.588;2023-03-01T00:17:05;35.48;30.40;39.68;;
76767;Laerm;65707;52.362;6.588;2023-03-01T00:19:34;34.84;30.65;39.74;;
76767;Laerm;65707;52.362;6.588;2023-03-01T00:22:01;35.75;30.81;41.97;;
76767;Laerm;65707;52.362;6.588;2023-03-01T00:24:28;35.21;30.51;41.48;;
76767;Laerm;65707;52.362;6.588;2023-03-01T00:26:55;35.14;30.58;48.77;;
76767;Laerm;65707;52.362;6.588;2023-03-01T00:29:23;36.03;30.96;42.03;;
76767;Laerm;65707;52.362;6.588;2023-03-01T00:31:50;36.30;31.26;45.79;;
76767;Laerm;65707;52.362;6.588;2023-03-01T00:34:17;36.67;31.08;42.94;;
76767;Laerm;65707;52.362;6.588;2023-03-01T00:36:46;37.06;31.58;43.71;;
76767;Laerm;65707;52.362;6.588;2023-03-01T00:39:14;35.08;30.56;41.24;;
76767;Laerm;65707;52.362;6.588;2023-03-01T00:41:42;35.61;31.11;40.49;;
76767;Laerm;65707;52.362;6.588;2023-03-01T00:44:10;35.37;30.70;40.46;;
76767;Laerm;65707;52.362;6.588;2023-03-01T00:46:38;35.68;30.91;40.46;;
76767;Laerm;65707;52.362;6.588;2023-03-01T00:49:05;36.29;30.95;45.40;;
76767;Laerm;65707;52.362;6.588;2023-03-01T00:51:32;35.01;30.46;39.05;;
76767;Laerm;65707;52.362;6.588;2023-03-01T00:54:02;37.07;31.20;52.52;;
76767;Laerm;65707;52.362;6.588;2023-03-01T00:56:30;35.20;31.24;42.44;;
76767;Laerm;65707;52.362;6.588;2023-03-01T00:58:57;35.10;30.58;41.02;;
76767;Laerm;65707;52.362;6.588;2023-03-01T01:01:26;37.88;31.37;48.26;;
76767;Laerm;65707;52.362;6.588;2023-03-01T01:03:59;35.70;31.05;40.43;;
76767;Laerm;65707;52.362;6.588;2023-03-01T01:06:29;35.70;31.40;39.44;;
76767;Laerm;65707;52.362;6.588;2023-03-01T01:08:57;35.23;30.87;39.33;;
76767;Laerm;65707;52.362;6.588;2023-03-01T01:11:28;34.88;30.21;38.47;;
76767;Laerm;65707;52.362;6.588;2023-03-01T01:13:57;35.12;30.62;38.98;;
76767;Laerm;65707;52.362;6.588;2023-03-01T01:16:26;34.80;30.72;38.16;;
76767;Laerm;65707;52.362;6.588;2023-03-01T01:18:55;35.34;30.23;39.49;;
76767;Laerm;65707;52.362;6.588;2023-03-01T01:21:24;35.24;30.82;39.61;;
76767;Laerm;65707;52.362;6.588;2023-03-01T01:23:51;36.29;31.04;42.96;;
76767;Laerm;65707;52.362;6.588;2023-03-01T01:26:22;36.20;30.75;43.27;;
76767;Laerm;65707;52.362;6.588;2023-03-01T01:28:51;35.63;30.60;46.17;;
76767;Laerm;65707;52.362;6.588;2023-03-01T01:31:18;70.64;31.85;85.25;;
76767;Laerm;65707;52.362;6.588;2023-03-01T01:33:46;34.78;30.36;38.45;;
76767;Laerm;65707;52.362;6.588;2023-03-01T01:36:13;36.75;31.32;42.15;;
76767;Laerm;65707;52.362;6.588;2023-03-01T01:38:40;35.46;30.73;40.08;;
76767;Laerm;65707;52.362;6.588;2023-03-01T01:41:10;36.59;31.01;46.22;;
76767;Laerm;65707;52.362;6.588;2023-03-01T01:43:40;35.20;30.98;38.47;;
76767;Laerm;65707;52.362;6.588;2023-03-01T01:46:21;35.30;30.87;39.34;;
76767;Laerm;65707;52.362;6.588;2023-03-01T01:48:59;35.29;30.61;39.71;;
76767;Laerm;65707;52.362;6.588;2023-03-01T01:51:31;35.13;30.59;39.81;;
76767;Laerm;65707;52.362;6.588;2023-03-01T01:54:07;34.86;30.91;38.58;;
76767;Laerm;65707;52.362;6.588;2023-03-01T01:56:38;34.93;30.37;39.61;;
76767;Laerm;65707;52.362;6.588;2023-03-01T01:59:07;36.43;30.78;51.78;;
76767;Laerm;65707;52.362;6.588;2023-03-01T02:01:36;35.69;30.62;45.61;;
76767;Laerm;65707;52.362;6.588;2023-03-01T02:04:04;35.47;30.74;40.40;;
76767;Laerm;65707;52.362;6.588;2023-03-01T02:06:37;37.12;31.06;48.55;;
76767;Laerm;65707;52.362;6.588;2023-03-01T02:09:11;35.72;30.90;46.95;;
76767;Laerm;65707;52.362;6.588;2023-03-01T02:11:40;35.68;31.19;40.61;;
76767;Laerm;65707;52.362;6.588;2023-03-01T02:14:07;35.64;31.07;39.91;;
76767;Laerm;65707;52.362;6.588;2023-03-01T02:16:35;36.25;31.40;41.44;;
76767;Laerm;65707;52.362;6.588;2023-03-01T02:19:04;35.51;30.98;39.40;;
76767;Laerm;65707;52.362;6.588;2023-03-01T02:21:42;35.57;31.10;41.14;;
76767;Laerm;65707;52.362;6.588;2023-03-01T02:24:26;35.66;30.77;41.63;;
76767;Laerm;65707;52.362;6.588;2023-03-01T02:26:58;35.17;30.38;40.37;;
76767;Laerm;65707;52.362;6.588;2023-03-01T02:29:28;38.71;30.58;55.35;;
76767;Laerm;65707;52.362;6.588;2023-03-01T02:31:58;35.66;30.66;46.14;;
76767;Laerm;65707;52.362;6.588;2023-03-01T02:34:28;35.29;30.81;40.39;;
76767;Laerm;65707;52.362;6.588;2023-03-01T02:37:01;35.70;31.04;40.41;;
76767;Laerm;65707;52.362;6.588;2023-03-01T02:39:39;38.14;30.94;51.42;;
76767;Laerm;65707;52.362;6.588;2023-03-01T02:42:12;36.05;31.10;40.72;;
76767;Laerm;65707;52.362;6.588;2023-03-01T02:44:41;36.23;31.47;43.06;;
76767;Laerm;65707;52.362;6.588;2023-03-01T02:47:08;35.13;30.65;38.96;;
76767;Laerm;65707;52.362;6.588;2023-03-01T02:49:36;35.32;30.82;38.90;;
76767;Laerm;65707;52.362;6.588;2023-03-01T02:52:23;35.74;30.86;39.86;;
76767;Laerm;65707;52.362;6.588;2023-03-01T02:55:01;35.22;30.82;39.90;;
76767;Laerm;65707;52.362;6.588;2023-03-01T02:57:31;35.83;30.79;41.92;;
76767;Laerm;65707;52.362;6.588;2023-03-01T03:00:06;36.41;31.17;46.13;;
76767;Laerm;65707;52.362;6.588;2023-03-01T03:02:35;36.67;31.27;46.94;;
76767;Laerm;65707;52.362;6.588;2023-03-01T03:05:09;35.37;30.76;39.96;;
76767;Laerm;65707;52.362;6.588;2023-03-01T03:07:40;35.66;30.83;39.58;;
76767;Laerm;65707;52.362;6.588;2023-03-01T03:10:12;36.14;30.94;42.86;;
76767;Laerm;65707;52.362;6.588;2023-03-01T03:12:40;35.39;30.94;39.30;;
76767;Laerm;65707;52.362;6.588;2023-03-01T03:15:10;37.41;30.85;42.72;;
76767;Laerm;65707;52.362;6.588;2023-03-01T03:17:41;36.17;31.30;44.49;;
76767;Laerm;65707;52.362;6.588;2023-03-01T03:20:12;37.64;30.81;53.56;;
76767;Laerm;65707;52.362;6.588;2023-03-01T03:22:44;35.27;30.49;44.66;;
76767;Laerm;65707;52.362;6.588;2023-03-01T03:25:12;36.79;30.89;53.03;;
76767;Laerm;65707;52.362;6.588;2023-03-01T03:27:41;37.01;31.37;45.75;;
76767;Laerm;65707;52.362;6.588;2023-03-01T03:30:14;36.24;31.54;44.83;;
76767;Laerm;65707;52.362;6.588;2023-03-01T03:32:45;38.85;31.47;54.87;;
76767;Laerm;65707;52.362;6.588;2023-03-01T03:35:19;35.98;31.52;40.30;;
76767;Laerm;65707;52.362;6.588;2023-03-01T03:37:47;39.34;31.71;54.97;;
76767;Laerm;65707;52.362;6.588;2023-03-01T03:40:33;35.94;31.65;40.03;;
76767;Laerm;65707;52.362;6.588;2023-03-01T03:43:00;35.39;30.97;38.90;;
76767;Laerm;65707;52.362;6.588;2023-03-01T03:45:29;35.71;31.28;39.46;;
76767;Laerm;65707;52.362;6.588;2023-03-01T03:47:58;39.19;31.94;53.09;;
76767;Laerm;65707;52.362;6.588;2023-03-01T03:50:25;39.24;31.58;51.33;;
76767;Laerm;65707;52.362;6.588;2023-03-01T03:52:55;72.09;33.21;83.94;;
76767;Laerm;65707;52.362;6.588;2023-03-01T03:55:22;38.99;32.80;53.73;;
76767;Laerm;65707;52.362;6.588;2023-03-01T03:57:53;42.17;33.19;51.89;;
76767;Laerm;65707;52.362;6.588;2023-03-01T04:00:22;38.48;33.15;47.60;;
76767;Laerm;65707;52.362;6.588;2023-03-01T04:02:51;38.80;32.91;56.30;;
76767;Laerm;65707;52.362;6.588;2023-03-01T04:05:23;39.49;33.86;50.94;;
76767;Laerm;65707;52.362;6.588;2023-03-01T04:07:50;37.44;32.29;42.06;;
76767;Laerm;65707;52.362;6.588;2023-03-01T04:10:27;57.71;33.69;78.83;;
76767;Laerm;65707;52.362;6.588;2023-03-01T04:12:55;39.81;33.33;48.50;;
76767;Laerm;65707;52.362;6.588;2023-03-01T04:15:24;38.11;33.51;42.03;;
76767;Laerm;65707;52.362;6.588;2023-03-01T04:17:54;41.96;33.33;58.53;;
76767;Laerm;65707;52.362;6.588;2023-03-01T04:20:24;40.67;33.98;50.09;;
76767;Laerm;65707;52.362;6.588;2023-03-01T04:23:00;39.87;33.94;55.61;;
76767;Laerm;65707;52.362;6.588;2023-03-01T04:25:37;38.03;33.32;43.28;;
76767;Laerm;65707;52.362;6.588;2023-03-01T04:28:04;39.45;33.95;49.58;;
76767;Laerm;65707;52.362;6.588;2023-03-01T04:30:31;43.58;35.51;55.65;;
76767;Laerm;65707;52.362;6.588;2023-03-01T04:33:04;42.01;36.48;54.33;;
76767;Laerm;65707;52.362;6.588;2023-03-01T04:35:31;41.99;36.44;55.06;;
76767;Laerm;65707;52.362;6.588;2023-03-01T04:37:58;54.74;37.09;76.19;;
76767;Laerm;65707;52.362;6.588;2023-03-01T04:40:25;59.36;34.86;78.79;;
76767;Laerm;65707;52.362;6.588;2023-03-01T04:42:52;68.71;35.91;83.41;;
76767;Laerm;65707;52.362;6.588;2023-03-01T04:45:19;67.99;38.36;83.87;;
76767;Laerm;65707;52.362;6.588;2023-03-01T04:47:47;40.98;36.18;46.46;;
76767;Laerm;65707;52.362;6.588;2023-03-01T04:50:20;43.06;36.76;53.55;;
76767;Laerm;65707;52.362;6.588;2023-03-01T04:52:49;53.49;38.32;73.54;;
76767;Laerm;65707;52.362;6.588;2023-03-01T04:55:16;49.76;37.18;72.24;;
76767;Laerm;65707;52.362;6.588;2023-03-01T04:57:43;44.09;37.26;59.66;;
76767;Laerm;65707;52.362;6.588;2023-03-01T05:00:12;53.10;39.53;68.73;;
76767;Laerm;65707;52.362;6.588;2023-03-01T05:02:52;43.34;38.37;50.57;;
76767;Laerm;65707;52.362;6.588;2023-03-01T05:05:26;45.11;37.65;57.40;;
76767;Laerm;65707;52.362;6.588;2023-03-01T05:07:58;55.12;39.61;72.47;;
76767;Laerm;65707;52.362;6.588;2023-03-01T05:10:27;50.85;38.62;68.27;;
76767;Laerm;65707;52.362;6.588;2023-03-01T05:12:55;61.38;40.26;79.82;;
76767;Laerm;65707;52.362;6.588;2023-03-01T05:15:23;47.66;39.46;60.60;;
76767;Laerm;65707;52.362;6.588;2023-03-01T05:17:51;46.97;39.04;61.74;;
76767;Laerm;65707;52.362;6.588;2023-03-01T05:20:20;46.25;39.48;58.45;;
76767;Laerm;65707;52.362;6.588;2023-03-01T05:22:51;46.72;38.77;60.26;;
76767;Laerm;65707;52.362;6.588;2023-03-01T05:25:19;55.30;38.60;75.45;;
76767;Laerm;65707;52.362;6.588;2023-03-01T05:27:47;47.29;37.71;61.63;;
76767;Laerm;65707;52.362;6.588;2023-03-01T05:30:15;53.97;39.35;73.98;;
76767;Laerm;65707;52.362;6.588;2023-03-01T05:32:44;46.84;40.25;61.53;;
76767;Laerm;65707;52.362;6.588;2023-03-01T05:35:14;46.83;39.52;62.23;;
76767;Laerm;65707;52.362;6.588;2023-03-01T05:37:43;55.37;40.07;75.18;;
76767;Laerm;65707;52.362;6.588;2023-03-01T05:40:14;64.62;42.00;81.21;;
76767;Laerm;65707;52.362;6.588;2023-03-01T05:42:46;49.29;41.67;68.34;;
76767;Laerm;65707;52.362;6.588;2023-03-01T05:45:15;46.77;41.24;57.67;;
76767;Laerm;65707;52.362;6.588;2023-03-01T05:47:45;46.16;39.93;59.96;;
76767;Laerm;65707;52.362;6.588;2023-03-01T05:50:15;46.35;40.93;58.21;;
76767;Laerm;65707;52.362;6.588;2023-03-01T05:52:45;47.25;40.47;63.56;;
76767;Laerm;65707;52.362;6.588;2023-03-01T05:55:14;57.92;41.32;73.70;;
76767;Laerm;65707;52.362;6.588;2023-03-01T05:57:41;60.45;41.24;96.49;;
76767;Laerm;65707;52.362;6.588;2023-03-01T06:00:10;55.46;41.33;74.15;;
76767;Laerm;65707;52.362;6.588;2023-03-01T06:02:37;49.51;40.69;68.04;;
76767;Laerm;65707;52.362;6.588;2023-03-01T06:05:05;47.75;41.98;56.85;;
76767;Laerm;65707;52.362;6.588;2023-03-01T06:07:33;51.33;41.93;74.25;;
76767;Laerm;65707;52.362;6.588;2023-03-01T06:10:01;62.47;42.90;78.87;;
76767;Laerm;65707;52.362;6.588;2023-03-01T06:12:32;48.87;43.19;58.80;;
76767;Laerm;65707;52.362;6.588;2023-03-01T06:14:59;47.98;43.48;57.36;;
76767;Laerm;65707;52.362;6.588;2023-03-01T06:17:29;49.57;43.86;66.98;;
76767;Laerm;65707;52.362;6.588;2023-03-01T06:19:56;49.89;44.28;66.62;;
76767;Laerm;65707;52.362;6.588;2023-03-01T06:22:23;48.56;43.43;56.04;;
76767;Laerm;65707;52.362;6.588;2023-03-01T06:24:50;56.32;43.79;74.58;;
76767;Laerm;65707;52.362;6.588;2023-03-01T06:27:17;48.94;43.86;67.16;;
76767;Laerm;65707;52.362;6.588;2023-03-01T06:29:45;54.90;44.26;72.66;;
76767;Laerm;65707;52.362;6.588;2023-03-01T06:32:12;53.34;43.92;69.33;;
76767;Laerm;65707;52.362;6.588;2023-03-01T06:34:39;48.53;42.80;56.64;;
76767;Laerm;65707;52.362;6.588;2023-03-01T06:37:06;49.39;43.29;59.46;;
76767;Laerm;65707;52.362;6.588;2023-03-01T06:39:33;56.11;44.36;74.75;;
76767;Laerm;65707;52.362;6.588;2023-03-01T06:42:00;62.17;43.22;79.47;;
76767;Laerm;65707;52.362;6.588;2023-03-01T06:44:29;48.16;42.73;56.10;;
76767;Laerm;65707;52.362;6.588;2023-03-01T06:46:58;47.44;42.59;58.15;;
76767;Laerm;65707;52.362;6.588;2023-03-01T06:49:25;47.81;42.55;58.70;;
76767;Laerm;65707;52.362;6.588;2023-03-01T06:51:52;47.85;42.50;56.62;;
76767;Laerm;65707;52.362;6.588;2023-03-01T06:54:19;55.00;42.15;73.95;;
76767;Laerm;65707;52.362;6.588;2023-03-01T06:56:48;55.14;42.14;75.36;;
76767;Laerm;65707;52.362;6.588;2023-03-01T06:59:16;53.87;41.80;69.70;;
76767;Laerm;65707;52.362;6.588;2023-03-01T07:01:43;53.62;43.37;71.72;;
76767;Laerm;65707;52.362;6.588;2023-03-01T07:04:12;56.83;42.71;74.75;;
76767;Laerm;65707;52.362;6.588;2023-03-01T07:06:40;56.33;41.32;74.68;;
76767;Laerm;65707;52.362;6.588;2023-03-01T07:09:07;50.56;41.35;66.70;;
76767;Laerm;65707;52.362;6.588;2023-03-01T07:11:34;62.40;42.46;80.61;;
76767;Laerm;65707;52.362;6.588;2023-03-01T07:14:01;48.61;42.12;68.24;;
76767;Laerm;65707;52.362;6.588;2023-03-01T07:16:29;47.50;41.18;56.78;;
76767;Laerm;65707;52.362;6.588;2023-03-01T07:18:55;46.23;41.20;59.41;;
76767;Laerm;65707;52.362;6.588;2023-03-01T07:21:24;59.71;41.88;80.07;;
76767;Laerm;65707;52.362;6.588;2023-03-01T07:23:50;54.54;41.86;71.95;;
76767;Laerm;65707;52.362;6.588;2023-03-01T07:26:17;63.27;40.81;93.41;;
76767;Laerm;65707;52.362;6.588;2023-03-01T07:28:44;50.31;41.30;69.32;;
76767;Laerm;65707;52.362;6.588;2023-03-01T07:31:11;53.16;41.96;70.77;;
76767;Laerm;65707;52.362;6.588;2023-03-01T07:33:38;45.23;40.69;54.33;;
76767;Laerm;65707;52.362;6.588;2023-03-01T07:36:06;45.44;40.40;59.49;;
76767;Laerm;65707;52.362;6.588;2023-03-01T07:38:34;55.63;40.35;76.65;;
76767;Laerm;65707;52.362;6.588;2023-03-01T07:41:03;59.31;40.23;76.65;;
76767;Laerm;65707;52.362;6.588;2023-03-01T07:43:31;63.19;41.02;79.80;;
76767;Laerm;65707;52.362;6.588;2023-03-01T07:45:59;69.61;39.97;84.24;;
76767;Laerm;65707;52.362;6.588;2023-03-01T07:48:26;47.45;39.71;70.79;;
76767;Laerm;65707;52.362;6.588;2023-03-01T07:50:53;58.37;40.31;79.32;;
76767;Laerm;65707;52.362;6.588;2023-03-01T07:53:20;54.88;40.49;74.53;;
76767;Laerm;65707;52.362;6.588;2023-03-01T07:55:48;53.62;40.05;72.32;;
76767;Laerm;65707;52.362;6.588;2023-03-01T07:58:15;46.18;40.88;54.75;;
76767;Laerm;65707;52.362;6.588;2023-03-01T08:00:42;52.70;40.98;72.65;;
76767;Laerm;65707;52.362;6.588;2023-03-01T08:03:09;53.15;40.99;69.32;;
76767;Laerm;65707;52.362;6.588;2023-03-01T08:05:36;46.42;41.12;58.47;;
76767;Laerm;65707;52.362;6.588;2023-03-01T08:08:05;69.48;42.45;84.28;;
76767;Laerm;65707;52.362;6.588;2023-03-01T08:10:32;60.19;42.21;78.95;;
76767;Laerm;65707;52.362;6.588;2023-03-01T08:13:00;46.69;41.23;56.43;;
76767;Laerm;65707;52.362;6.588;2023-03-01T08:15:27;45.35;41.07;53.72;;
76767;Laerm;65707;52.362;6.588;2023-03-01T08:17:54;46.89;41.64;68.58;;
76767;Laerm;65707;52.362;6.588;2023-03-01T08:20:21;64.76;41.01;79.72;;
76767;Laerm;65707;52.362;6.588;2023-03-01T08:22:48;46.39;40.85;57.97;;
76767;Laerm;65707;52.362;6.588;2023-03-01T08:25:15;52.67;41.22;69.76;;
76767;Laerm;65707;52.362;6.588;2023-03-01T08:27:41;48.30;41.11;64.21;;
76767;Laerm;65707;52.362;6.588;2023-03-01T08:30:11;55.61;41.14;71.25;;
76767;Laerm;65707;52.362;6.588;2023-03-01T08:32:39;46.19;41.15;52.77;;
76767;Laerm;65707;52.362;6.588;2023-03-01T08:35:07;48.12;41.20;65.49;;
76767;Laerm;65707;52.362;6.588;2023-03-01T08:37:34;55.44;41.04;74.11;;
76767;Laerm;65707;52.362;6.588;2023-03-01T08:40:01;46.10;40.99;56.76;;
76767;Laerm;65707;52.362;6.588;2023-03-01T08:42:29;57.96;38.18;76.72;;
76767;Laerm;65707;52.362;6.588;2023-03-01T08:44:57;43.94;37.97;52.95;;
76767;Laerm;65707;52.362;6.588;2023-03-01T08:47:25;43.87;37.25;55.77;;
76767;Laerm;65707;52.362;6.588;2023-03-01T08:49:52;59.60;41.80;77.16;;
76767;Laerm;65707;52.362;6.588;2023-03-01T08:52:19;45.44;38.75;59.69;;
76767;Laerm;65707;52.362;6.588;2023-03-01T08:54:47;54.70;38.54;73.98;;
76767;Laerm;65707;52.362;6.588;2023-03-01T08:57:14;52.56;37.36;74.23;;
76767;Laerm;65707;52.362;6.588;2023-03-01T08:59:41;51.95;39.22;71.01;;
76767;Laerm;65707;52.362;6.588;2023-03-01T09:02:13;52.20;40.82;68.82;;
76767;Laerm;65707;52.362;6.588;2023-03-01T09:04:42;45.94;38.55;58.43;;
76767;Laerm;65707;52.362;6.588;2023-03-01T09:07:10;44.70;39.05;53.09;;
76767;Laerm;65707;52.362;6.588;2023-03-01T09:09:37;45.26;38.86;55.67;;
76767;Laerm;65707;52.362;6.588;2023-03-01T09:12:05;57.33;38.45;76.68;;
76767;Laerm;65707;52.362;6.588;2023-03-01T09:14:32;47.03;38.59;62.58;;
76767;Laerm;65707;52.362;6.588;2023-03-01T09:16:58;43.61;37.21;53.12;;
76767;Laerm;65707;52.362;6.588;2023-03-01T09:19:28;43.58;36.70;57.27;;
76767;Laerm;65707;52.362;6.588;2023-03-01T09:21:56;59.29;38.46;77.36;;
76767;Laerm;65707;52.362;6.588;2023-03-01T09:24:25;52.90;38.46;72.70;;
76767;Laerm;65707;52.362;6.588;2023-03-01T09:26:56;43.58;37.08;53.77;;
76767;Laerm;65707;52.362;6.588;2023-03-01T09:29:23;51.60;37.51;68.07;;
76767;Laerm;65707;52.362;6.588;2023-03-01T09:31:51;52.67;37.75;68.58;;
76767;Laerm;65707;52.362;6.588;2023-03-01T09:34:20;49.63;37.41;70.28;;
76767;Laerm;65707;52.362;6.588;2023-03-01T09:36:49;49.38;38.25;68.15;;
76767;Laerm;65707;52.362;6.588;2023-03-01T09:39:18;53.28;38.55;70.86;;
76767;Laerm;65707;52.362;6.588;2023-03-01T09:41:54;52.72;37.43;74.90;;
76767;Laerm;65707;52.362;6.588;2023-03-01T09:44:38;58.53;37.99;77.04;;
76767;Laerm;65707;52.362;6.588;2023-03-01T09:47:14;44.34;37.30;55.90;;
76767;Laerm;65707;52.362;6.588;2023-03-01T09:49:51;62.54;36.85;81.37;;
76767;Laerm;65707;52.362;6.588;2023-03-01T09:52:28;58.34;37.06;78.57;;
76767;Laerm;65707;52.362;6.588;2023-03-01T09:54:58;56.63;38.43;74.44;;
76767;Laerm;65707;52.362;6.588;2023-03-01T09:57:33;44.68;37.32;54.87;;
76767;Laerm;65707;52.362;6.588;2023-03-01T10:00:30;52.07;39.32;71.38;;
76767;Laerm;65707;52.362;6.588;2023-03-01T10:03:11;51.16;39.18;69.69;;
76767;Laerm;65707;52.362;6.588;2023-03-01T10:05:50;44.94;37.40;54.33;;
76767;Laerm;65707;52.362;6.588;2023-03-01T10:08:40;51.99;38.43;73.02;;
76767;Laerm;65707;52.362;6.588;2023-03-01T10:11:21;60.24;39.25;77.47;;
76767;Laerm;65707;52.362;6.588;2023-03-01T10:13:59;45.54;38.13;57.78;;
76767;Laerm;65707;52.362;6.588;2023-03-01T10:16:40;44.76;37.60;54.28;;
76767;Laerm;65707;52.362;6.588;2023-03-01T10:19:23;45.47;38.33;59.70;;
76767;Laerm;65707;52.362;6.588;2023-03-01T10:21:51;56.64;37.99;75.65;;
76767;Laerm;65707;52.362;6.588;2023-03-01T10:24:20;51.66;38.26;75.70;;
76767;Laerm;65707;52.362;6.588;2023-03-01T10:26:55;45.55;36.91;58.54;;
76767;Laerm;65707;52.362;6.588;2023-03-01T10:29:30;51.53;39.39;71.20;;
76767;Laerm;65707;52.362;6.588;2023-03-01T10:31:58;51.76;38.22;69.73;;
76767;Laerm;65707;52.362;6.588;2023-03-01T10:34:30;46.23;38.90;56.31;;
76767;Laerm;65707;52.362;6.588;2023-03-01T10:37:09;54.84;37.75;74.35;;
76767;Laerm;65707;52.362;6.588;2023-03-01T10:39:37;62.32;38.87;78.59;;
76767;Laerm;65707;52.362;6.588;2023-03-01T10:42:28;44.87;35.89;56.76;;
76767;Laerm;65707;52.362;6.588;2023-03-01T10:44:55;59.53;39.27;77.49;;
76767;Laerm;65707;52.362;6.588;2023-03-01T10:47:25;43.41;37.75;53.61;;
76767;Laerm;65707;52.362;6.588;2023-03-01T10:49:56;59.29;39.29;78.24;;
76767;Laerm;65707;52.362;6.588;2023-03-01T10:52:31;47.28;39.69;60.35;;
76767;Laerm;65707;52.362;6.588;2023-03-01T10:55:03;56.25;38.71;81.89;;
76767;Laerm;65707;52.362;6.588;2023-03-01T10:57:39;46.83;39.02;60.09;;
76767;Laerm;65707;52.362;6.588;2023-03-01T11:00:25;52.47;38.04;72.22;;
76767;Laerm;65707;52.362;6.588;2023-03-01T11:03:10;52.31;40.34;70.59;;
